Time;durP1;ratioP1;P1;durP2;ratioP2;P2;SDS_P1;SDS_P2;PMS_P1;PMS_P2;Temp;Humidity;BMP_temperature;BMP_pressure;BME280_temperature;BME280_humidity;BME280_pressure;Samples;Min_cycle;Max_cycle;Signal;HPM_P1;HPM_P2
2021/05/29 00:00:30;;;;;;;0.50;0.50;;;;;;;11.13;61.12;97409.94;29395;256;63009;-72
2021/05/29 00:01:03;;;;;;;0.50;0.50;;;;;;;11.11;60.96;97403.97;29395;209;63004;-72
2021/05/29 00:01:34;;;;;;;0.50;0.50;;;;;;;11.11;61.16;97400.44;29395;238;63009;-72
2021/05/29 00:02:06;;;;;;;0.50;0.50;;;;;;;11.10;61.72;97405.06;29395;266;63004;-71
2021/05/29 00:02:37;;;;;;;0.50;0.50;;;;;;;11.08;61.66;97404.56;29395;346;63009;-64
2021/05/29 00:03:08;;;;;;;0.50;0.50;;;;;;;11.08;61.44;97402.66;29395;226;63004;-71
2021/05/29 00:03:40;;;;;;;0.50;0.50;;;;;;;11.07;61.44;97406.47;29395;301;63008;-70
2021/05/29 00:04:11;;;;;;;0.50;0.50;;;;;;;11.07;61.70;97405.66;29395;253;63005;-64
2021/05/29 00:04:42;;;;;;;0.50;0.50;;;;;;;11.07;61.60;97406.47;29394;222;64014;-71
2021/05/29 00:05:17;;;;;;;0.50;0.50;;;;;;;11.08;61.32;97407.28;29394;197;64005;-70
2021/05/29 00:05:49;;;;;;;0.50;0.50;;;;;;;11.09;61.14;97408.87;29395;327;63009;-70
2021/05/29 00:06:20;;;;;;;0.50;0.50;;;;;;;11.09;61.42;97404.25;29395;230;63005;-71
2021/05/29 00:06:52;;;;;;;0.50;0.50;;;;;;;11.10;61.28;97405.06;29395;203;63009;-72
2021/05/29 00:07:23;;;;;;;0.50;0.50;;;;;;;11.11;61.15;97398.53;29395;280;63014;-72
2021/05/29 00:07:54;;;;;;;0.50;0.50;;;;;;;11.11;61.06;97401.25;29395;214;63009;-63
2021/05/29 00:08:26;;;;;;;0.50;0.50;;;;;;;11.11;61.03;97395.00;29395;224;63004;-71
2021/05/29 00:08:57;;;;;;;0.50;0.50;;;;;;;11.10;61.15;97394.19;29395;258;63009;-69
2021/05/29 00:09:28;;;;;;;0.50;0.50;;;;;;;11.11;61.14;97395.00;29395;211;63004;-72
2021/05/29 00:10:00;;;;;;;0.50;0.50;;;;;;;11.11;61.04;97397.72;29394;242;64013;-72
2021/05/29 00:10:32;;;;;;;0.50;0.50;;;;;;;11.11;60.89;97393.09;29395;212;63004;-72
2021/05/29 00:11:09;;;;;;;0.50;0.50;;;;;;;11.11;60.70;97395.81;29395;200;63008;-71
2021/05/29 00:11:43;;;;;;;0.50;0.50;;;;;;;11.12;60.72;97392.00;29395;215;63005;-71
2021/05/29 00:12:14;;;;;;;0.50;0.50;;;;;;;11.13;60.78;97393.63;29395;213;63009;-72
2021/05/29 00:12:46;;;;;;;0.50;0.50;;;;;;;11.14;61.46;97389.81;29395;218;63008;-66
2021/05/29 00:13:19;;;;;;;0.50;0.50;;;;;;;11.14;60.94;97389.00;29395;254;63009;-70
2021/05/29 00:13:50;;;;;;;0.50;0.50;;;;;;;11.13;61.10;97384.69;29395;252;63005;-71
2021/05/29 00:14:22;;;;;;;0.50;0.50;;;;;;;11.13;61.34;97390.09;29395;198;63009;-71
2021/05/29 00:14:53;;;;;;;0.50;0.50;;;;;;;11.13;61.09;97381.97;29395;276;63005;-71
2021/05/29 00:15:25;;;;;;;0.50;0.50;;;;;;;11.12;61.20;97381.16;29394;208;64013;-71
2021/05/29 00:15:56;;;;;;;0.55;0.55;;;;;;;11.12;61.04;97386.56;29395;210;63004;-71
2021/05/29 00:16:28;;;;;;;0.50;0.50;;;;;;;11.13;60.69;97385.47;29395;211;63009;-71
2021/05/29 00:16:59;;;;;;;0.50;0.50;;;;;;;11.13;61.37;97382.78;29394;275;64009;-72
2021/05/29 00:17:30;;;;;;;0.50;0.50;;;;;;;11.12;61.60;97381.16;29395;238;63009;-71
2021/05/29 00:18:01;;;;;;;0.50;0.50;;;;;;;11.11;61.73;97390.38;29395;197;63004;-71
2021/05/29 00:18:33;;;;;;;0.50;0.50;;;;;;;11.10;61.54;97388.78;29394;198;64013;-72
2021/05/29 00:19:04;;;;;;;0.50;0.50;;;;;;;11.10;61.34;97380.63;29395;202;63004;-72
2021/05/29 00:19:36;;;;;;;0.60;0.60;;;;;;;11.12;61.46;97385.78;29395;228;63009;-71
2021/05/29 00:20:09;;;;;;;0.50;0.50;;;;;;;11.12;61.91;97391.19;29395;227;63005;-73
2021/05/29 00:20:41;;;;;;;0.50;0.50;;;;;;;11.10;61.65;97386.06;29394;246;64014;-71
2021/05/29 00:21:12;;;;;;;0.50;0.50;;;;;;;11.12;61.72;97392.00;29395;244;63005;-72
2021/05/29 00:21:43;;;;;;;0.50;0.50;;;;;;;11.12;61.52;97392.00;29394;197;64030;-72
2021/05/29 00:22:15;;;;;;;0.50;0.50;;;;;;;11.11;61.80;97390.38;29394;262;64005;-65
2021/05/29 00:22:47;;;;;;;0.50;0.50;;;;;;;11.10;61.72;97394.19;29395;215;63009;-72
2021/05/29 00:23:18;;;;;;;0.50;0.50;;;;;;;11.10;61.49;97394.19;29395;223;63011;-72
2021/05/29 00:23:49;;;;;;;0.50;0.50;;;;;;;11.09;62.42;97387.16;29395;225;63009;-73
2021/05/29 00:24:20;;;;;;;0.50;0.50;;;;;;;11.09;62.46;97395.28;29395;228;63004;-73
2021/05/29 00:24:51;;;;;;;0.50;0.50;;;;;;;11.07;62.23;97390.19;29395;202;63009;-71
2021/05/29 00:25:23;;;;;;;0.60;0.60;;;;;;;11.08;62.02;97390.97;29395;213;63004;-73
2021/05/29 00:25:54;;;;;;;0.50;0.50;;;;;;;11.08;62.27;97391.78;29395;233;63024;-71
2021/05/29 00:26:26;;;;;;;0.50;0.50;;;;;;;11.07;62.46;97389.38;29395;259;63004;-72
2021/05/29 00:26:57;;;;;;;0.50;0.50;;;;;;;11.07;62.44;97389.38;29394;225;64014;-71
2021/05/29 00:27:29;;;;;;;0.50;0.50;;;;;;;11.07;62.59;97389.38;29395;209;63005;-71
2021/05/29 00:28:00;;;;;;;0.50;0.50;;;;;;;11.06;62.53;97385.84;29395;209;63009;-71
2021/05/29 00:28:32;;;;;;;0.50;0.50;;;;;;;11.05;62.29;97369.81;29394;250;64009;-66
2021/05/29 00:29:03;;;;;;;0.60;0.60;;;;;;;11.04;62.38;97374.44;29395;197;63009;-71
2021/05/29 00:29:34;;;;;;;0.50;0.50;;;;;;;11.04;62.29;97368.19;29394;221;64009;-70
2021/05/29 00:30:10;;;;;;;0.50;0.50;;;;;;;11.05;62.35;97367.09;29395;235;63009;-71
2021/05/29 00:30:43;;;;;;;0.50;0.50;;;;;;;11.05;62.50;97364.41;29395;244;63005;-71
2021/05/29 00:31:14;;;;;;;0.50;0.50;;;;;;;11.05;62.46;97361.69;29395;205;63009;-64
2021/05/29 00:31:45;;;;;;;0.50;0.50;;;;;;;11.07;62.20;97362.22;29396;214;63004;-71
2021/05/29 00:32:16;;;;;;;0.50;0.50;;;;;;;11.07;61.63;97362.22;29395;246;63009;-71
2021/05/29 00:32:47;;;;;;;0.50;0.50;;;;;;;11.08;61.10;97359.22;29395;252;63004;-71
2021/05/29 00:33:19;;;;;;;0.50;0.50;;;;;;;11.10;60.92;97361.59;29395;305;63009;-70
2021/05/29 00:33:50;;;;;;;0.50;0.50;;;;;;;11.10;60.75;97361.59;29395;207;63004;-72
2021/05/29 00:34:21;;;;;;;0.50;0.50;;;;;;;11.11;60.85;97360.50;29395;270;63019;-70
2021/05/29 00:34:52;;;;;;;0.50;0.50;;;;;;;11.12;60.75;97359.41;29394;265;64009;-72
2021/05/29 00:35:23;;;;;;;0.60;0.60;;;;;;;11.14;60.59;97367.28;29395;269;63009;-72
2021/05/29 00:35:58;;;;;;;0.50;0.50;;;;;;;11.14;60.54;97361.84;29395;253;63005;-71
2021/05/29 00:36:30;;;;;;;0.50;0.50;;;;;;;11.14;60.29;97368.09;29395;198;63009;-71
2021/05/29 00:37:01;;;;;;;0.50;0.50;;;;;;;11.16;60.14;97362.38;29395;219;63005;-71
2021/05/29 00:37:32;;;;;;;0.50;0.50;;;;;;;11.15;60.50;97364.28;29395;206;63009;-71
2021/05/29 00:38:06;;;;;;;0.52;0.52;;;;;;;11.16;60.35;97359.66;29395;197;63005;-72
2021/05/29 00:38:38;;;;;;;0.50;0.50;;;;;;;11.17;60.21;97359.38;29394;220;64013;-71
2021/05/29 00:39:12;;;;;;;0.52;0.52;;;;;;;11.17;60.42;97355.84;29395;275;63004;-70
2021/05/29 00:39:44;;;;;;;0.50;0.50;;;;;;;11.16;60.23;97355.03;29395;234;63009;-70
2021/05/29 00:40:17;;;;;;;0.60;0.60;;;;;;;11.18;60.42;97355.56;29395;197;63010;-71
2021/05/29 00:40:52;;;;;;;0.60;0.60;;;;;;;11.18;60.08;97355.56;29395;229;63009;-71
2021/05/29 00:41:28;;;;;;;0.50;0.50;;;;;;;11.19;59.95;97349.03;29394;202;64008;-70
2021/05/29 00:42:07;;;;;;;0.50;0.50;;;;;;;11.20;59.94;97350.66;29395;276;63009;-71
2021/05/29 00:42:40;;;;;;;0.50;0.50;;;;;;;11.20;59.85;97350.66;29395;254;63005;-71
2021/05/29 00:43:15;;;;;;;0.50;0.50;;;;;;;11.21;60.01;97354.19;29395;264;63009;-72
2021/05/29 00:43:52;;;;;;;0.60;0.60;;;;;;;11.21;59.53;97357.72;29395;247;63005;-72
2021/05/29 00:44:51;;;;;;;0.50;0.50;;;;;;;11.21;59.86;97360.44;29395;278;63016;-71
2021/05/29 00:45:53;;;;;;;0.60;0.60;;;;;;;11.21;60.24;97356.91;29417;280;63009;-72
2021/05/29 00:46:34;;;;;;;0.60;0.60;;;;;;;11.20;60.31;97361.53;29394;219;64009;-72
2021/05/29 00:47:10;;;;;;;0.50;0.50;;;;;;;11.19;60.27;97359.91;29395;218;63009;-72
2021/05/29 00:47:42;;;;;;;0.50;0.50;;;;;;;11.19;60.44;97368.06;29395;233;63011;-71
2021/05/29 00:48:13;;;;;;;0.50;0.50;;;;;;;11.17;60.88;97364.81;29395;227;63009;-71
2021/05/29 00:48:44;;;;;;;0.50;0.50;;;;;;;11.17;60.83;97361.28;29395;198;63004;-72
2021/05/29 00:49:16;;;;;;;0.50;0.50;;;;;;;11.17;60.98;97364.00;29395;262;63008;-65
2021/05/29 00:49:48;;;;;;;0.50;0.50;;;;;;;11.16;61.69;97362.38;29395;204;63005;-64
2021/05/29 00:50:19;;;;;;;0.50;0.50;;;;;;;11.15;61.65;97367.00;29395;202;63009;-65
2021/05/29 00:50:58;;;;;;;0.50;0.50;;;;;;;11.13;62.95;97355.63;29395;219;63005;-66
2021/05/29 00:51:30;;;;;;;0.52;0.52;;;;;;;11.09;62.01;97354.56;29394;229;64013;-64
2021/05/29 00:52:02;;;;;;;0.50;0.50;;;;;;;11.11;62.06;97359.69;29395;213;63005;-70
2021/05/29 00:52:35;;;;;;;0.50;0.50;;;;;;;11.10;62.00;97358.91;29395;222;63009;-64
2021/05/29 00:53:06;;;;;;;0.50;0.50;;;;;;;11.09;61.39;97354.56;29394;234;64009;-71
2021/05/29 00:53:41;;;;;;;0.52;0.52;;;;;;;11.08;61.58;97353.78;29395;213;63009;-70
2021/05/29 00:54:13;;;;;;;0.50;0.50;;;;;;;11.10;61.55;97345.31;29394;218;64009;-66
2021/05/29 00:54:45;;;;;;;0.50;0.50;;;;;;;11.09;61.38;97349.13;29395;230;63009;-72
2021/05/29 00:55:17;;;;;;;0.50;0.50;;;;;;;11.11;61.31;97352.38;29395;202;63004;-70
2021/05/29 00:55:48;;;;;;;0.50;0.50;;;;;;;11.10;61.04;97348.03;29395;202;63014;-71
2021/05/29 00:56:19;;;;;;;0.50;0.50;;;;;;;11.10;61.67;97350.75;29395;273;63004;-71
2021/05/29 00:56:51;;;;;;;0.50;0.50;;;;;;;11.08;61.36;97347.53;29395;197;63005;-71
2021/05/29 00:57:22;;;;;;;0.50;0.50;;;;;;;11.08;61.48;97347.53;29394;231;64009;-66
2021/05/29 00:57:54;;;;;;;0.50;0.50;;;;;;;11.03;62.23;97340.25;29395;200;63015;-70
2021/05/29 00:58:29;;;;;;;0.50;0.50;;;;;;;11.06;62.59;97349.72;29394;228;64009;-71
2021/05/29 00:59:02;;;;;;;0.50;0.50;;;;;;;11.05;62.88;97354.34;29395;243;63009;-71
2021/05/29 00:59:34;;;;;;;0.50;0.50;;;;;;;11.03;62.77;97344.84;29395;214;63012;-71
2021/05/29 01:00:07;;;;;;;0.50;0.50;;;;;;;11.03;62.32;97344.84;29395;200;63009;-65
2021/05/29 01:00:38;;;;;;;0.50;0.50;;;;;;;11.03;62.30;97351.09;29395;224;63004;-71
2021/05/29 01:01:09;;;;;;;0.50;0.50;;;;;;;11.03;62.68;97350.28;29395;225;63009;-71
2021/05/29 01:01:42;;;;;;;0.50;0.50;;;;;;;11.02;62.54;97348.66;29394;205;64009;-71
2021/05/29 01:02:16;;;;;;;0.50;0.50;;;;;;;11.02;62.55;97344.06;29395;202;63009;-71
2021/05/29 01:02:50;;;;;;;0.60;0.60;;;;;;;11.03;62.37;97353.00;29395;227;63010;-65
2021/05/29 01:03:22;;;;;;;0.50;0.50;;;;;;;11.02;62.29;97349.47;29395;269;63008;-71
2021/05/29 01:03:53;;;;;;;0.50;0.50;;;;;;;11.03;62.21;97344.84;29395;222;63004;-71
2021/05/29 01:04:24;;;;;;;0.50;0.50;;;;;;;11.04;61.87;97347.28;29395;208;63009;-71
2021/05/29 01:04:55;;;;;;;0.50;0.50;;;;;;;10.99;61.53;97344.62;29395;256;63005;-71
2021/05/29 01:05:27;;;;;;;0.50;0.50;;;;;;;11.02;62.18;97349.47;29395;250;63009;-72
2021/05/29 01:05:58;;;;;;;0.50;0.50;;;;;;;11.00;62.08;97342.72;29394;215;64009;-72
2021/05/29 01:06:29;;;;;;;0.50;0.50;;;;;;;11.00;63.05;97356.28;29395;250;63009;-72
2021/05/29 01:07:02;;;;;;;1.35;1.35;;;;;;;10.97;62.72;97349.50;29395;204;63008;-71
2021/05/29 01:07:34;;;;;;;0.50;0.50;;;;;;;10.96;62.89;97349.78;29395;206;63009;-71
2021/05/29 01:08:05;;;;;;;0.50;0.50;;;;;;;10.94;62.75;97346.56;29395;224;63004;-72
2021/05/29 01:08:36;;;;;;;0.50;0.50;;;;;;;10.92;62.67;97344.12;29395;249;63009;-71
2021/05/29 01:09:07;;;;;;;0.60;0.60;;;;;;;10.91;62.68;97341.69;29395;218;63004;-72
2021/05/29 01:09:40;;;;;;;0.50;0.50;;;;;;;10.89;62.54;97343.88;29395;218;63009;-72
2021/05/29 01:10:14;;;;;;;0.50;0.50;;;;;;;10.88;62.73;97348.50;29395;225;63004;-72
2021/05/29 01:10:45;;;;;;;0.50;0.50;;;;;;;10.87;62.56;97346.88;29395;269;63008;-66
2021/05/29 01:11:17;;;;;;;0.50;0.50;;;;;;;10.85;63.43;97348.25;29394;215;64009;-71
2021/05/29 01:11:48;;;;;;;0.50;0.50;;;;;;;10.83;63.24;97345.00;29395;221;63009;-71
2021/05/29 01:12:19;;;;;;;0.50;0.50;;;;;;;10.81;63.51;97341.75;29395;197;63005;-71
2021/05/29 01:12:52;;;;;;;0.50;0.50;;;;;;;10.80;63.27;97342.84;29395;256;63009;-72
2021/05/29 01:13:34;;;;;;;0.50;0.50;;;;;;;10.80;63.12;97345.56;29395;263;63005;-71
2021/05/29 01:14:06;;;;;;;0.50;0.50;;;;;;;10.79;63.33;97344.75;29395;210;63009;-65
2021/05/29 01:14:45;;;;;;;0.50;0.50;;;;;;;10.77;63.30;97354.28;29395;277;63005;-71
2021/05/29 01:15:19;;;;;;;0.50;0.50;;;;;;;10.76;63.14;97358.88;29394;231;64009;-71
2021/05/29 01:15:50;;;;;;;0.50;0.50;;;;;;;10.75;63.09;97349.94;29395;297;63004;-72
2021/05/29 01:16:43;;;;;;;0.50;0.50;;;;;;;10.75;63.94;97354.56;29395;266;63009;-71
2021/05/29 01:17:13;;;;;;;0.50;0.50;;;;;;;10.73;63.50;97357.56;29417;275;63004;-72
2021/05/29 01:17:45;;;;;;;0.50;0.50;;;;;;;10.72;63.83;97355.97;29395;266;63009;-71
2021/05/29 01:18:18;;;;;;;0.50;0.50;;;;;;;10.70;63.46;97352.72;29394;258;64008;-72
2021/05/29 01:18:49;;;;;;;0.50;0.50;;;;;;;10.69;63.40;97356.53;29395;214;63009;-71
2021/05/29 01:19:20;;;;;;;0.50;0.50;;;;;;;10.68;63.25;97360.31;29394;221;64009;-64
2021/05/29 01:19:52;;;;;;;0.50;0.50;;;;;;;10.67;63.54;97358.69;29395;244;63017;-71
2021/05/29 01:20:24;;;;;;;0.50;0.50;;;;;;;10.67;63.70;97358.69;29395;204;63005;-71
2021/05/29 01:20:55;;;;;;;0.50;0.50;;;;;;;10.61;64.02;97348.97;29394;261;64013;-71
2021/05/29 01:21:26;;;;;;;0.50;0.50;;;;;;;10.65;64.17;97355.47;29395;215;63005;-66
2021/05/29 01:21:58;;;;;;;0.50;0.50;;;;;;;10.63;63.93;97352.22;29394;209;64013;-72
2021/05/29 01:22:47;;;;;;;0.50;0.50;;;;;;;10.64;64.31;97353.84;29395;258;63005;-72
2021/05/29 01:23:18;;;;;;;0.50;0.50;;;;;;;10.62;64.53;97347.87;29395;254;63009;-71
2021/05/29 01:23:50;;;;;;;0.50;0.50;;;;;;;10.61;65.20;97348.97;29395;231;63007;-71
2021/05/29 01:24:24;;;;;;;0.50;0.50;;;;;;;10.60;64.82;97350.06;29394;244;64013;-71
2021/05/29 01:24:55;;;;;;;0.60;0.60;;;;;;;10.59;64.60;97345.72;29395;198;63004;-71
2021/05/29 01:25:33;;;;;;;0.50;0.50;;;;;;;10.59;64.39;97348.44;29395;196;63008;-72
2021/05/29 01:26:04;;;;;;;0.60;0.60;;;;;;;10.58;64.40;97349.53;29394;196;64008;-72
2021/05/29 01:26:35;;;;;;;0.55;0.55;;;;;;;10.59;64.23;97345.72;29395;259;63009;-71
2021/05/29 01:27:08;;;;;;;0.60;0.60;;;;;;;10.58;64.21;97344.09;29395;203;63005;-72
2021/05/29 01:27:39;;;;;;;0.50;0.50;;;;;;;10.60;63.96;97349.25;29395;243;63009;-72
2021/05/29 01:28:25;;;;;;;0.50;0.50;;;;;;;10.60;64.89;97344.62;29395;267;63005;-71
2021/05/29 01:28:59;;;;;;;0.50;0.50;;;;;;;10.59;64.89;97355.78;29395;209;63009;-72
2021/05/29 01:29:31;;;;;;;0.60;0.60;;;;;;;10.57;65.48;97347.91;29395;211;63005;-71
2021/05/29 01:30:05;;;;;;;0.50;0.50;;;;;;;10.56;65.39;97345.47;29395;211;63009;-71
2021/05/29 01:30:41;;;;;;;0.50;0.50;;;;;;;10.55;65.25;97344.66;29395;202;63004;-71
2021/05/29 01:31:14;;;;;;;0.57;0.57;;;;;;;10.53;65.95;97346.84;29394;212;64013;-64
2021/05/29 01:31:58;;;;;;;0.60;0.60;;;;;;;10.52;66.21;97350.66;29395;212;63004;-72
2021/05/29 01:32:33;;;;;;;0.50;0.50;;;;;;;10.51;65.64;97350.94;29395;205;63009;-71
2021/05/29 01:33:05;;;;;;;0.60;0.60;;;;;;;10.49;65.32;97351.22;29395;280;63004;-71
2021/05/29 01:33:38;;;;;;;0.60;0.60;;;;;;;10.49;65.17;97351.22;29395;249;63015;-65
2021/05/29 01:34:12;;;;;;;0.50;0.50;;;;;;;10.49;65.18;97359.34;29395;209;63020;-72
2021/05/29 01:34:44;;;;;;;0.57;0.57;;;;;;;10.48;65.17;97349.59;29394;223;64014;-72
2021/05/29 01:35:15;;;;;;;0.52;0.52;;;;;;;10.48;65.23;97352.28;29395;197;63005;-71
2021/05/29 01:35:47;;;;;;;0.50;0.50;;;;;;;10.49;65.22;97353.91;29395;211;63009;-72
2021/05/29 01:36:19;;;;;;;0.50;0.50;;;;;;;10.48;65.18;97349.59;29395;198;63005;-72
2021/05/29 01:36:51;;;;;;;0.50;0.50;;;;;;;10.48;65.29;97352.28;29395;198;63009;-65
2021/05/29 01:37:22;;;;;;;0.50;0.50;;;;;;;10.48;65.24;97346.06;29395;264;63005;-72
2021/05/29 01:37:54;;;;;;;0.50;0.50;;;;;;;10.48;65.32;97344.16;29395;208;63023;-72
2021/05/29 01:38:26;;;;;;;0.50;0.50;;;;;;;10.47;65.28;97358.81;29395;205;63012;-71
2021/05/29 01:38:57;;;;;;;0.50;0.50;;;;;;;10.47;65.65;97358.81;29395;252;63009;-64
2021/05/29 01:39:29;;;;;;;0.60;0.60;;;;;;;10.47;65.29;97352.56;29395;197;63004;-72
2021/05/29 01:40:01;;;;;;;0.50;0.50;;;;;;;10.47;65.41;97353.38;29394;197;64013;-72
2021/05/29 01:40:32;;;;;;;0.60;0.60;;;;;;;10.47;65.28;97363.44;29395;202;63004;-72
2021/05/29 01:41:10;;;;;;;0.50;0.50;;;;;;;10.47;65.52;97358.00;29395;205;63008;-71
2021/05/29 01:41:43;;;;;;;0.50;0.50;;;;;;;10.46;65.37;97359.91;29395;277;63005;-72
2021/05/29 01:42:15;;;;;;;0.50;0.50;;;;;;;10.47;65.16;97358.81;29394;227;64014;-72
2021/05/29 01:42:46;;;;;;;0.50;0.50;;;;;;;10.47;65.39;97358.81;29394;234;64009;-64
2021/05/29 01:43:19;;;;;;;0.60;0.60;;;;;;;10.47;65.34;97364.25;29395;212;63009;-71
2021/05/29 01:43:52;;;;;;;0.55;0.55;;;;;;;10.48;66.32;97365.88;29395;241;63005;-72
2021/05/29 01:44:23;;;;;;;0.60;0.60;;;;;;;10.47;65.50;97361.53;29395;247;63009;-72
2021/05/29 01:44:56;;;;;;;0.50;0.50;;;;;;;10.46;65.42;97357.19;29394;246;64009;-72
2021/05/29 01:45:29;;;;;;;0.50;0.50;;;;;;;10.46;65.25;97359.09;29395;202;63009;-72
2021/05/29 01:46:01;;;;;;;0.50;0.50;;;;;;;10.45;65.51;97355.56;29395;202;63004;-71
2021/05/29 01:46:32;;;;;;;0.50;0.50;;;;;;;10.45;65.86;97361.00;29395;230;63009;-71
2021/05/29 01:47:05;;;;;;;0.50;0.50;;;;;;;10.44;66.11;97364.81;29395;218;63004;-72
2021/05/29 01:47:42;;;;;;;0.60;0.60;;;;;;;10.43;66.01;97357.75;29395;204;64013;-72
2021/05/29 01:48:17;;;;;;;0.50;0.50;;;;;;;10.41;65.80;97359.94;29395;218;63004;-72
2021/05/29 01:48:49;;;;;;;0.60;0.60;;;;;;;10.42;66.02;97356.13;29395;259;63008;-72
2021/05/29 01:49:21;;;;;;;0.60;0.60;;;;;;;10.42;66.06;97356.13;29395;222;63005;-71
2021/05/29 01:49:52;;;;;;;0.50;0.50;;;;;;;10.42;66.51;97361.56;29395;233;63009;-72
2021/05/29 01:50:24;;;;;;;0.60;0.60;;;;;;;10.41;66.41;97359.94;29395;197;63005;-64
2021/05/29 01:50:55;;;;;;;0.50;0.50;;;;;;;10.39;67.50;97357.53;29395;226;63009;-71
2021/05/29 01:51:26;;;;;;;0.60;0.60;;;;;;;10.38;67.00;97355.09;29395;238;63012;-71
2021/05/29 01:51:58;;;;;;;0.60;0.60;;;;;;;10.37;67.39;97357.00;29395;204;63017;-71
2021/05/29 01:53:06;;;;;;;0.60;0.60;;;;;;;10.33;66.69;97349.69;29395;240;63004;-71
2021/05/29 01:53:39;;;;;;;0.60;0.60;;;;;;;10.35;66.82;97352.94;29394;230;64013;-72
2021/05/29 01:54:15;;;;;;;0.50;0.50;;;;;;;10.34;66.84;97343.19;29395;202;63004;-64
2021/05/29 01:54:46;;;;;;;0.60;0.60;;;;;;;10.34;66.64;97348.59;29395;225;63008;-71
2021/05/29 01:55:20;;;;;;;0.60;0.60;;;;;;;10.34;66.41;97354.03;29395;204;63004;-71
2021/05/29 01:55:51;;;;;;;0.60;0.60;;;;;;;10.33;66.38;97353.22;29395;236;63009;-71
2021/05/29 01:56:22;;;;;;;0.60;0.60;;;;;;;10.34;66.41;97351.31;29395;268;63005;-65
2021/05/29 01:56:56;;;;;;;0.50;0.50;;;;;;;10.34;66.82;97348.59;29395;205;63009;-72
2021/05/29 01:57:27;;;;;;;0.50;0.50;;;;;;;10.33;66.40;97352.41;29395;259;63005;-72
2021/05/29 01:58:00;;;;;;;0.60;0.60;;;;;;;10.33;66.88;97352.41;29395;212;63024;-71
2021/05/29 01:58:31;;;;;;;0.50;0.50;;;;;;;10.32;66.80;97350.78;29395;207;63005;-65
2021/05/29 01:59:03;;;;;;;0.50;0.50;;;;;;;10.31;66.71;97351.88;29394;197;64013;-71
2021/05/29 01:59:34;;;;;;;0.60;0.60;;;;;;;10.32;66.45;97351.59;29395;216;63005;-71
2021/05/29 02:00:07;;;;;;;0.50;0.50;;;;;;;10.33;66.62;97357.81;29395;277;63009;-71
2021/05/29 02:00:38;;;;;;;0.60;0.60;;;;;;;10.32;67.54;97351.59;29395;221;63004;-72
2021/05/29 02:01:14;;;;;;;0.50;0.50;;;;;;;10.31;67.47;97349.16;29395;231;63014;-72
2021/05/29 02:01:45;;;;;;;0.60;0.60;;;;;;;10.30;67.69;97352.97;29395;228;63004;-72
2021/05/29 02:02:17;;;;;;;0.50;0.50;;;;;;;10.30;67.52;97352.97;29395;260;63007;-71
2021/05/29 02:02:48;;;;;;;0.50;0.50;;;;;;;10.27;67.12;97348.91;29395;198;63004;-71
2021/05/29 02:03:19;;;;;;;0.60;0.60;;;;;;;10.27;67.60;97348.91;29395;219;63009;-71
2021/05/29 02:03:50;;;;;;;0.60;0.60;;;;;;;10.28;67.32;97350.53;29395;216;63005;-71
2021/05/29 02:04:22;;;;;;;0.60;0.60;;;;;;;10.27;67.63;97358.94;29394;373;64014;-72
2021/05/29 02:04:54;;;;;;;0.50;0.50;;;;;;;10.26;67.42;97346.47;29395;258;63005;-72
2021/05/29 02:05:28;;;;;;;0.60;0.60;;;;;;;10.27;67.80;97348.09;29395;234;63009;-71
2021/05/29 02:06:00;;;;;;;0.50;0.50;;;;;;;10.26;68.34;97346.47;29395;328;63005;-71
2021/05/29 02:06:31;;;;;;;0.60;0.60;;;;;;;10.25;67.74;97350.28;29395;204;63009;-72
2021/05/29 02:07:03;;;;;;;0.60;0.60;;;;;;;10.24;67.83;97354.06;29395;212;63005;-72
2021/05/29 02:07:35;;;;;;;0.55;0.55;;;;;;;10.24;67.67;97345.94;29395;216;63009;-71
2021/05/29 02:08:10;;;;;;;0.50;0.50;;;;;;;10.22;67.70;97350.81;29395;224;63004;-71
2021/05/29 02:08:41;;;;;;;0.50;0.50;;;;;;;10.23;67.62;97352.44;29395;226;63009;-70
2021/05/29 02:09:12;;;;;;;0.50;0.50;;;;;;;10.23;67.54;97352.44;29395;236;63004;-71
2021/05/29 02:09:44;;;;;;;0.50;0.50;;;;;;;10.23;67.50;97347.03;29394;228;64013;-71
2021/05/29 02:10:22;;;;;;;0.55;0.55;;;;;;;10.23;67.80;97347.03;29395;220;63004;-71
2021/05/29 02:10:54;;;;;;;0.60;0.60;;;;;;;10.22;68.52;97351.63;29394;226;64009;-71
2021/05/29 02:11:25;;;;;;;0.60;0.60;;;;;;;10.20;69.25;97350.28;29395;213;63005;-71
2021/05/29 02:11:56;;;;;;;0.60;0.60;;;;;;;10.18;68.82;97355.16;29395;240;63009;-71
2021/05/29 02:12:27;;;;;;;0.60;0.60;;;;;;;10.15;69.36;97344.84;29395;199;63005;-70
2021/05/29 02:13:01;;;;;;;0.50;0.50;;;;;;;10.13;69.65;97353.28;29395;197;63009;-71
2021/05/29 02:13:35;;;;;;;0.50;0.50;;;;;;;10.11;68.84;97346.50;29395;225;63005;-71
2021/05/29 02:14:06;;;;;;;0.60;0.60;;;;;;;10.12;69.09;97342.69;29394;247;64013;-72
2021/05/29 02:14:37;;;;;;;0.60;0.60;;;;;;;10.11;69.37;97351.94;29395;221;63005;-71
2021/05/29 02:15:12;;;;;;;0.50;0.50;;;;;;;10.09;69.27;97353.00;29395;223;63015;-72
2021/05/29 02:15:46;;;;;;;0.50;0.50;;;;;;;10.11;69.25;97349.22;29395;218;63004;-65
2021/05/29 02:16:17;;;;;;;0.60;0.60;;;;;;;10.09;68.88;97360.34;29395;229;63009;-71
2021/05/29 02:16:48;;;;;;;0.50;0.50;;;;;;;10.09;68.93;97358.44;29395;208;63004;-70
2021/05/29 02:17:19;;;;;;;0.50;0.50;;;;;;;10.10;68.85;97356.53;29395;320;63009;-71
2021/05/29 02:17:53;;;;;;;0.60;0.60;;;;;;;10.09;68.70;97353.00;29395;198;63004;-71
2021/05/29 02:18:25;;;;;;;0.60;0.60;;;;;;;10.09;68.83;97358.44;29395;210;63009;-64
2021/05/29 02:18:56;;;;;;;0.50;0.50;;;;;;;10.11;68.67;97360.88;29394;214;64009;-71
2021/05/29 02:19:27;;;;;;;0.50;0.50;;;;;;;10.11;68.77;97360.06;29395;364;63009;-72
2021/05/29 02:19:58;;;;;;;0.52;0.52;;;;;;;10.10;68.83;97351.13;29395;204;63005;-71
2021/05/29 02:21:01;;;;;;;0.50;0.50;;;;;;;10.09;69.06;97357.63;29395;227;63009;-71
2021/05/29 02:21:32;;;;;;;0.60;0.60;;;;;;;10.08;68.81;97359.53;29395;219;63005;-70
2021/05/29 02:22:04;;;;;;;0.60;0.60;;;;;;;10.09;68.95;97357.63;29395;366;63016;-72
2021/05/29 02:22:36;;;;;;;0.60;0.60;;;;;;;10.11;68.43;97351.94;29395;221;63004;-70
2021/05/29 02:23:08;;;;;;;0.50;0.50;;;;;;;10.11;69.38;97350.03;29395;244;63009;-71
2021/05/29 02:23:42;;;;;;;0.50;0.50;;;;;;;10.08;70.05;97356.81;29395;213;63004;-71
2021/05/29 02:24:14;;;;;;;0.50;0.50;;;;;;;10.03;70.10;97356.87;29394;248;64013;-72
2021/05/29 02:24:45;;;;;;;0.60;0.60;;;;;;;10.04;69.88;97355.78;29395;213;63004;-70
2021/05/29 02:25:16;;;;;;;0.50;0.50;;;;;;;10.05;69.16;97357.38;29395;223;63008;-70
2021/05/29 02:25:52;;;;;;;0.50;0.50;;;;;;;10.06;69.18;97364.41;29395;221;63005;-71
2021/05/29 02:26:23;;;;;;;0.60;0.60;;;;;;;10.06;69.17;97359.00;29395;243;63009;-72
2021/05/29 02:26:54;;;;;;;0.50;0.50;;;;;;;10.06;69.27;97356.28;29395;278;63005;-71
2021/05/29 02:27:26;;;;;;;0.50;0.50;;;;;;;10.06;69.17;97359.00;29395;254;63009;-72
2021/05/29 02:27:57;;;;;;;0.50;0.50;;;;;;;10.06;69.42;97359.00;29395;243;63005;-71
2021/05/29 02:28:29;;;;;;;0.50;0.50;;;;;;;10.06;69.13;97361.69;29395;232;63009;-72
2021/05/29 02:29:00;;;;;;;0.50;0.50;;;;;;;10.06;69.11;97353.56;29395;373;63005;-64
2021/05/29 02:29:31;;;;;;;0.50;0.50;;;;;;;10.07;69.22;97360.62;29394;247;64013;-71
2021/05/29 02:30:09;;;;;;;0.50;0.50;;;;;;;10.07;69.32;97355.19;29395;233;63004;-71
2021/05/29 02:30:41;;;;;;;0.50;0.50;;;;;;;10.08;68.89;97362.22;29395;316;63009;-71
2021/05/29 02:31:13;;;;;;;0.50;0.50;;;;;;;10.08;68.94;97354.09;29394;197;64004;-71
2021/05/29 02:31:44;;;;;;;0.50;0.50;;;;;;;10.08;69.38;97351.38;29394;265;64013;-71
2021/05/29 02:32:15;;;;;;;0.60;0.60;;;;;;;10.09;69.51;97357.63;29395;240;63004;-71
2021/05/29 02:32:46;;;;;;;0.60;0.60;;;;;;;10.08;70.22;97358.72;29395;240;63008;-71
2021/05/29 02:33:19;;;;;;;0.60;0.60;;;;;;;10.05;70.02;97357.38;29395;275;63004;-71
2021/05/29 02:33:51;;;;;;;0.60;0.60;;;;;;;10.04;69.80;97360.38;29395;266;63009;-71
2021/05/29 02:34:22;;;;;;;0.60;0.60;;;;;;;10.03;69.81;97356.87;29395;203;63005;-72
2021/05/29 02:34:53;;;;;;;0.50;0.50;;;;;;;10.03;69.82;97359.56;29395;214;63009;-71
2021/05/29 02:35:25;;;;;;;0.50;0.50;;;;;;;10.04;69.69;97363.91;29395;251;63005;-71
2021/05/29 02:36:00;;;;;;;0.65;0.65;;;;;;;10.06;69.58;97359.00;29395;229;63009;-70
2021/05/29 02:36:32;;;;;;;0.50;0.50;;;;;;;10.06;69.62;97361.69;29394;279;64009;-71
2021/05/29 02:37:03;;;;;;;0.60;0.60;;;;;;;10.07;69.65;97365.22;29395;217;63009;-72